createdAt,value
2022-08-28T00:01:33.515Z,19.61
2022-08-28T00:04:06.565Z,19.49
2022-08-28T00:06:38.276Z,19.37
2022-08-28T00:09:11.469Z,19.24
2022-08-28T00:11:43.746Z,19.14
2022-08-28T00:14:15.290Z,19.10
2022-08-28T00:16:47.092Z,19.08
2022-08-28T00:19:20.699Z,19.04
2022-08-28T00:21:54.002Z,18.99
2022-08-28T00:24:25.784Z,18.93
2022-08-28T00:27:15.501Z,18.86
2022-08-28T00:29:50.950Z,18.76
2022-08-28T00:32:25.211Z,18.70
2022-08-28T00:34:56.924Z,18.67
2022-08-28T00:37:30.277Z,18.66
2022-08-28T00:40:02.150Z,18.65
2022-08-28T00:42:36.325Z,18.66
2022-08-28T00:45:09.916Z,18.66
2022-08-28T00:47:41.574Z,18.66
2022-08-28T00:50:17.956Z,18.66
2022-08-28T00:52:54.196Z,18.64
2022-08-28T00:55:28.912Z,18.58
2022-08-28T00:58:02.022Z,18.50
2022-08-28T01:00:36.986Z,18.48
2022-08-28T01:03:09.179Z,18.47
2022-08-28T01:05:50.411Z,18.44
2022-08-28T01:08:20.677Z,18.41
2022-08-28T01:10:58.645Z,18.35
2022-08-28T01:13:32.005Z,18.35
2022-08-28T01:16:04.212Z,18.34
2022-08-28T01:18:36.553Z,18.32
2022-08-28T01:21:20.408Z,18.30
2022-08-28T01:23:57.787Z,18.21
2022-08-28T01:26:30.363Z,18.11
2022-08-28T01:29:04.541Z,18.00
2022-08-28T01:31:37.813Z,17.94
2022-08-28T01:34:12.454Z,17.91
2022-08-28T01:36:45.505Z,17.88
2022-08-28T01:39:20.285Z,17.85
2022-08-28T01:41:53.454Z,17.83
2022-08-28T01:44:27.518Z,17.81
2022-08-28T01:47:00.568Z,17.75
2022-08-28T01:49:32.321Z,17.70
2022-08-28T01:52:04.708Z,17.67
2022-08-28T01:54:36.980Z,17.64
2022-08-28T01:57:13.209Z,17.65
2022-08-28T01:59:44.846Z,17.66
2022-08-28T02:02:17.960Z,17.65
2022-08-28T02:04:49.667Z,17.63
2022-08-28T02:07:21.307Z,17.61
2022-08-28T02:09:52.962Z,17.60
2022-08-28T02:12:25.152Z,17.58
2022-08-28T02:14:56.995Z,17.59
2022-08-28T02:17:28.690Z,17.60
2022-08-28T02:20:00.298Z,17.60
2022-08-28T02:22:31.871Z,17.61
2022-08-28T02:25:04.139Z,17.63
2022-08-28T02:27:36.330Z,17.67
2022-08-28T02:30:12.715Z,17.69
2022-08-28T02:32:45.288Z,17.71
2022-08-28T02:35:19.792Z,17.72
2022-08-28T02:37:52.108Z,17.75
2022-08-28T02:40:28.050Z,17.78
2022-08-28T02:43:00.327Z,17.81
2022-08-28T02:45:32.341Z,17.86
2022-08-28T02:48:05.007Z,17.92
2022-08-28T02:50:47.155Z,17.97
2022-08-28T02:53:18.768Z,18.00
2022-08-28T02:55:50.392Z,18.01
2022-08-28T02:58:22.168Z,18.02
2022-08-28T03:00:53.794Z,18.02
2022-08-28T03:03:31.106Z,18.00
2022-08-28T03:06:03.482Z,18.00
2022-08-28T03:08:35.120Z,18.00
2022-08-28T03:11:07.948Z,17.97
2022-08-28T03:13:39.538Z,17.98
2022-08-28T03:16:11.665Z,17.96
2022-08-28T03:18:43.440Z,17.92
2022-08-28T03:21:15.045Z,17.89
2022-08-28T03:23:47.241Z,17.90
2022-08-28T03:26:20.898Z,17.91
2022-08-28T03:28:57.642Z,17.93
2022-08-28T03:31:35.780Z,17.93
2022-08-28T03:34:07.615Z,17.90
2022-08-28T03:36:39.163Z,17.89
2022-08-28T03:39:11.921Z,17.91
2022-08-28T03:41:45.954Z,17.96
2022-08-28T03:44:17.650Z,17.97
2022-08-28T03:46:49.398Z,17.95
2022-08-28T03:49:21.996Z,17.95
2022-08-28T03:51:54.735Z,17.96
2022-08-28T03:54:26.513Z,17.95
2022-08-28T03:56:58.317Z,17.97
2022-08-28T03:59:33.503Z,17.97
2022-08-28T04:02:05.292Z,17.95
2022-08-28T04:04:36.917Z,17.90
2022-08-28T04:07:08.495Z,17.86
2022-08-28T04:09:40.110Z,17.83
2022-08-28T04:12:13.092Z,17.81
2022-08-28T04:14:44.909Z,17.82
2022-08-28T04:17:16.566Z,17.85
2022-08-28T04:19:52.835Z,17.88
2022-08-28T04:22:24.841Z,17.90
2022-08-28T04:24:56.636Z,17.90
2022-08-28T04:27:28.359Z,17.89
2022-08-28T04:30:00.020Z,17.88
2022-08-28T04:32:36.352Z,17.88
2022-08-28T04:35:10.545Z,17.89
2022-08-28T04:37:43.707Z,17.91
2022-08-28T04:40:16.042Z,17.96
2022-08-28T04:42:47.735Z,18.07
2022-08-28T04:45:19.952Z,18.08
2022-08-28T04:47:51.568Z,18.08
2022-08-28T04:50:23.328Z,18.05
2022-08-28T04:52:54.989Z,18.01
2022-08-28T04:55:48.533Z,18.00
2022-08-28T04:58:19.911Z,18.04
2022-08-28T05:00:56.261Z,18.06
2022-08-28T05:03:27.934Z,18.11
2022-08-28T05:05:59.492Z,18.15
2022-08-28T05:08:34.016Z,18.16
2022-08-28T05:11:32.679Z,18.17
2022-08-28T05:14:06.969Z,18.20
2022-08-28T05:16:43.978Z,18.23
2022-08-28T05:19:16.662Z,18.28
2022-08-28T05:21:48.455Z,18.36
2022-08-28T05:24:21.297Z,18.43
2022-08-28T05:26:55.456Z,18.52
2022-08-28T05:29:31.715Z,18.68
2022-08-28T05:32:03.293Z,18.85
2022-08-28T05:34:35.453Z,19.04
2022-08-28T05:37:08.905Z,19.23
2022-08-28T05:39:40.563Z,19.49
2022-08-28T05:42:12.298Z,19.93
2022-08-28T05:44:44.090Z,20.72
2022-08-28T05:47:16.711Z,21.51
2022-08-28T05:49:53.260Z,21.79
2022-08-28T05:52:24.939Z,21.93
2022-08-28T05:54:56.791Z,21.94
2022-08-28T05:57:28.324Z,21.83
2022-08-28T06:00:00.103Z,21.74
2022-08-28T06:02:31.619Z,21.74
2022-08-28T06:05:04.075Z,21.72
2022-08-28T06:07:36.089Z,21.70
2022-08-28T06:10:10.611Z,21.72
2022-08-28T06:12:42.425Z,21.74
2022-08-28T06:15:15.540Z,21.75
2022-08-28T06:17:48.487Z,21.78
2022-08-28T06:20:20.888Z,21.81
2022-08-28T06:22:53.741Z,21.83
2022-08-28T06:25:25.383Z,21.86
2022-08-28T06:27:56.971Z,21.90
2022-08-28T06:30:28.583Z,21.94
2022-08-28T06:33:01.930Z,22.05
2022-08-28T06:35:34.400Z,22.14
2022-08-28T06:38:08.712Z,22.19
2022-08-28T06:40:45.228Z,22.26
2022-08-28T06:43:18.279Z,22.29
2022-08-28T06:45:54.816Z,22.33
2022-08-28T06:48:29.923Z,22.42
2022-08-28T06:51:02.046Z,22.72
2022-08-28T06:53:35.537Z,23.08
2022-08-28T06:56:10.160Z,23.31
2022-08-28T06:58:50.187Z,23.49
2022-08-28T07:01:26.953Z,23.60
2022-08-28T07:04:01.235Z,23.74
2022-08-28T07:06:36.095Z,23.84
2022-08-28T07:09:09.299Z,23.90
2022-08-28T07:11:41.315Z,23.93
2022-08-28T07:14:13.317Z,24.00
2022-08-28T07:16:45.003Z,24.15
2022-08-28T07:19:16.765Z,24.29
2022-08-28T07:21:49.012Z,24.44
2022-08-28T07:24:23.356Z,24.80
2022-08-28T07:26:55.212Z,25.39
2022-08-28T07:29:27.001Z,26.07
2022-08-28T07:31:59.564Z,26.75
2022-08-28T07:34:31.271Z,27.18
2022-08-28T07:37:04.291Z,27.37
2022-08-28T07:39:36.400Z,27.48
2022-08-28T07:42:09.384Z,27.57
2022-08-28T07:44:50.375Z,27.65
2022-08-28T07:47:22.909Z,27.68
2022-08-28T07:49:57.754Z,27.72
2022-08-28T07:52:30.378Z,27.68
2022-08-28T07:55:01.996Z,27.67
2022-08-28T07:57:34.225Z,27.66
2022-08-28T08:00:07.871Z,27.67
2022-08-28T08:02:43.639Z,27.68
2022-08-28T08:05:15.328Z,27.66
2022-08-28T08:07:50.017Z,27.76
2022-08-28T08:10:23.236Z,27.88
2022-08-28T08:12:54.741Z,27.89
2022-08-28T08:15:30.715Z,27.85
2022-08-28T08:18:02.987Z,27.74
2022-08-28T08:20:34.693Z,27.71
2022-08-28T08:23:06.335Z,27.75
2022-08-28T08:25:38.090Z,27.85
2022-08-28T08:28:09.737Z,28.00
2022-08-28T08:30:41.294Z,28.11
2022-08-28T08:33:13.851Z,28.19
2022-08-28T08:35:46.695Z,28.27
2022-08-28T08:38:20.591Z,28.38
2022-08-28T08:40:52.885Z,28.41
2022-08-28T08:43:29.400Z,28.38
2022-08-28T08:46:01.143Z,28.28
2022-08-28T08:48:38.769Z,28.19
2022-08-28T08:51:21.436Z,28.13
2022-08-28T08:54:07.133Z,28.06
2022-08-28T08:56:39.532Z,28.00
2022-08-28T08:59:15.362Z,27.94
2022-08-28T09:01:57.026Z,27.89
2022-08-28T09:04:40.521Z,27.92
2022-08-28T09:07:19.549Z,28.06
2022-08-28T09:09:54.631Z,28.21
2022-08-28T09:12:28.601Z,28.31
2022-08-28T09:15:05.485Z,28.38
2022-08-28T09:17:47.939Z,28.48
2022-08-28T09:20:30.237Z,28.53
2022-08-28T09:23:13.540Z,28.57
2022-08-28T09:26:01.556Z,28.52
2022-08-28T09:28:37.148Z,28.44
2022-08-28T09:31:14.435Z,28.35
2022-08-28T09:33:50.666Z,28.32
2022-08-28T09:36:39.594Z,28.31
2022-08-28T09:39:18.332Z,28.33
2022-08-28T09:42:15.698Z,28.31
2022-08-28T09:44:57.236Z,28.27
2022-08-28T09:47:49.182Z,28.28
2022-08-28T09:50:25.497Z,28.23
2022-08-28T09:53:00.233Z,28.23
2022-08-28T09:55:45.695Z,28.20
2022-08-28T09:58:17.765Z,28.24
2022-08-28T10:01:01.972Z,28.29
2022-08-28T10:03:41.404Z,28.40
2022-08-28T10:06:19.961Z,28.41
2022-08-28T10:09:03.005Z,28.43
2022-08-28T10:11:44.754Z,28.40
2022-08-28T10:14:35.753Z,28.45
2022-08-28T10:17:18.963Z,28.53
2022-08-28T10:20:03.813Z,28.57
2022-08-28T10:22:43.230Z,28.64
2022-08-28T10:25:23.570Z,28.71
2022-08-28T10:28:11.208Z,28.75
2022-08-28T10:30:54.812Z,28.73
2022-08-28T10:33:42.763Z,28.68
2022-08-28T10:36:33.488Z,28.74
2022-08-28T10:39:18.968Z,28.77
2022-08-28T10:41:54.968Z,28.81
2022-08-28T10:44:31.840Z,28.83
2022-08-28T10:47:06.711Z,28.82
2022-08-28T10:49:41.912Z,28.82
2022-08-28T10:52:17.969Z,28.79
2022-08-28T10:54:54.638Z,28.75
2022-08-28T10:57:39.234Z,28.66
2022-08-28T11:00:18.014Z,28.60
2022-08-28T11:02:52.247Z,28.53
2022-08-28T11:05:26.124Z,28.44
2022-08-28T11:08:01.908Z,28.34
2022-08-28T11:10:51.001Z,28.31
2022-08-28T11:13:50.133Z,28.24
2022-08-28T11:16:26.075Z,28.23
2022-08-28T11:19:38.712Z,28.21
2022-08-28T11:22:19.049Z,28.19
2022-08-28T11:25:04.439Z,28.21
2022-08-28T11:28:02.995Z,28.18
2022-08-28T11:30:38.500Z,28.20
2022-08-28T11:33:32.423Z,28.24
2022-08-28T11:36:05.257Z,28.32
2022-08-28T11:39:13.675Z,28.34
2022-08-28T11:42:27.483Z,28.35
2022-08-28T11:44:59.151Z,28.48
2022-08-28T11:47:56.793Z,28.56
2022-08-28T11:50:33.211Z,28.64
2022-08-28T11:53:28.954Z,28.65
2022-08-28T11:56:29.133Z,28.65
2022-08-28T11:59:35.115Z,28.55
2022-08-28T12:02:44.851Z,28.38
2022-08-28T12:05:55.624Z,28.20
2022-08-28T12:08:42.927Z,27.98
2022-08-28T12:11:49.966Z,27.69
2022-08-28T12:15:07.465Z,27.49
2022-08-28T12:17:59.353Z,27.34
2022-08-28T12:20:40.251Z,27.26
2022-08-28T12:23:41.232Z,27.17
2022-08-28T12:26:23.590Z,27.13
2022-08-28T12:29:01.392Z,27.17
2022-08-28T12:32:15.061Z,27.25
2022-08-28T12:34:53.988Z,27.35
2022-08-28T12:37:39.478Z,27.34
2022-08-28T12:40:27.330Z,27.32
2022-08-28T12:43:01.667Z,27.30
2022-08-28T12:45:40.413Z,27.27
2022-08-28T12:48:23.357Z,27.23
2022-08-28T12:51:03.199Z,27.23
2022-08-28T12:53:44.283Z,27.17
2022-08-28T12:56:18.758Z,27.10
2022-08-28T12:58:51.207Z,27.06
2022-08-28T13:01:41.573Z,27.01
2022-08-28T13:04:31.081Z,26.95
2022-08-28T13:07:12.031Z,26.86
2022-08-28T13:09:51.031Z,26.69
2022-08-28T13:12:51.672Z,26.52
2022-08-28T13:15:45.764Z,26.36
2022-08-28T13:18:51.378Z,26.19
2022-08-28T13:21:34.023Z,25.97
2022-08-28T13:24:40.603Z,25.76
2022-08-28T13:27:25.622Z,25.49
2022-08-28T13:30:05.728Z,25.20
2022-08-28T13:32:39.861Z,24.94
2022-08-28T13:35:31.742Z,24.73
2022-08-28T13:38:06.666Z,24.51
2022-08-28T13:40:57.974Z,24.31
2022-08-28T13:43:43.250Z,23.94
2022-08-28T13:46:15.021Z,23.55
2022-08-28T13:48:46.527Z,23.21
2022-08-28T13:51:21.191Z,22.88
2022-08-28T13:53:52.915Z,22.53
2022-08-28T13:56:24.714Z,22.28
2022-08-28T13:58:57.629Z,22.18
2022-08-28T14:01:49.738Z,22.07
2022-08-28T15:54:08.428Z,18.03
2022-08-28T15:56:41.601Z,18.17
2022-08-28T15:59:13.840Z,18.20
2022-08-28T16:01:46.874Z,18.25
2022-08-28T16:04:18.852Z,18.30
2022-08-28T16:06:50.440Z,18.30
2022-08-28T16:09:35.152Z,18.29
2022-08-28T16:12:07.558Z,18.27
2022-08-28T16:14:39.359Z,18.26
2022-08-28T16:17:11.575Z,18.30
2022-08-28T16:19:49.581Z,18.32
2022-08-28T16:22:24.975Z,18.33
2022-08-28T16:24:58.303Z,18.38
2022-08-28T16:27:31.669Z,18.44
2022-08-28T16:30:15.818Z,18.49
2022-08-28T16:32:49.499Z,18.49
2022-08-28T16:35:23.899Z,18.49
2022-08-28T16:38:00.311Z,18.54
2022-08-28T16:40:32.724Z,18.61
2022-08-28T16:44:48.786Z,18.83
2022-08-28T16:50:20.584Z,18.95
2022-08-28T16:52:56.932Z,19.01
2022-08-28T16:55:32.364Z,19.06
2022-08-28T16:58:18.076Z,19.12
2022-08-28T17:00:52.585Z,19.16
2022-08-28T17:03:30.130Z,19.18
2022-08-28T17:06:10.640Z,19.20
2022-08-28T17:08:43.954Z,19.22
2022-08-28T17:11:17.665Z,19.18
2022-08-28T17:13:50.188Z,19.09
2022-08-28T17:16:31.984Z,19.01
2022-08-28T17:19:06.333Z,18.97
2022-08-28T17:21:55.734Z,18.94
2022-08-28T17:24:28.618Z,18.89
2022-08-28T17:27:05.378Z,18.83
2022-08-28T17:29:40.309Z,18.76
2022-08-28T17:32:14.591Z,18.74
2022-08-28T17:34:47.016Z,18.76
2022-08-28T17:37:23.864Z,18.79
2022-08-28T17:39:56.523Z,18.82
2022-08-28T17:42:32.046Z,18.82
2022-08-28T17:45:07.403Z,18.83
2022-08-28T17:47:40.115Z,18.85
2022-08-28T17:50:14.296Z,18.85
2022-08-28T17:52:51.732Z,18.87
2022-08-28T17:55:24.567Z,18.89
2022-08-28T17:57:57.137Z,18.91
2022-08-28T18:00:34.200Z,18.86
2022-08-28T18:03:07.631Z,18.83
2022-08-28T18:05:41.468Z,18.83
2022-08-28T18:08:13.237Z,18.80
2022-08-28T18:10:44.993Z,18.78
2022-08-28T18:13:16.733Z,18.77
2022-08-28T18:15:50.979Z,18.74
2022-08-28T18:18:34.429Z,18.74
2022-08-28T18:21:09.885Z,18.75
2022-08-28T18:23:42.057Z,18.77
2022-08-28T18:26:14.263Z,18.78
2022-08-28T18:28:46.348Z,18.81
2022-08-28T18:31:18.552Z,18.83
2022-08-28T18:33:55.515Z,18.84
2022-08-28T18:36:27.850Z,18.86
2022-08-28T18:38:59.514Z,18.89
2022-08-28T18:41:37.649Z,18.91
2022-08-28T18:44:19.216Z,18.91
2022-08-28T18:46:54.303Z,18.87
2022-08-28T18:49:27.032Z,18.85
2022-08-28T18:51:58.660Z,18.87
2022-08-28T18:54:31.286Z,18.90
2022-08-28T18:57:04.085Z,18.92
2022-08-28T18:59:38.792Z,18.95
2022-08-28T19:02:10.717Z,18.96
2022-08-28T19:04:42.745Z,18.99
2022-08-28T19:07:15.657Z,18.98
2022-08-28T19:09:50.141Z,18.98
2022-08-28T19:12:21.908Z,18.96
2022-08-28T19:14:56.688Z,18.94
2022-08-28T19:17:29.641Z,18.96
2022-08-28T19:20:02.840Z,19.00
2022-08-28T19:22:35.003Z,19.04
2022-08-28T19:25:13.330Z,19.08
2022-08-28T19:28:02.518Z,19.12
2022-08-28T19:30:36.946Z,19.12
2022-08-28T19:33:08.628Z,19.16
2022-08-28T19:35:40.521Z,19.18
2022-08-28T19:38:13.523Z,19.20
2022-08-28T19:40:45.603Z,19.21
2022-08-28T19:43:18.641Z,19.24
2022-08-28T19:45:50.565Z,19.24
2022-08-28T19:48:22.624Z,19.23
2022-08-28T19:51:05.382Z,19.22
2022-08-28T19:53:37.745Z,19.23
2022-08-28T19:56:10.837Z,19.24
2022-08-28T19:58:42.473Z,19.25
2022-08-28T20:01:14.300Z,19.25
2022-08-28T20:03:46.355Z,19.27
2022-08-28T20:06:18.310Z,19.27
2022-08-28T20:08:50.151Z,19.27
2022-08-28T20:11:25.048Z,19.28
2022-08-28T20:13:59.149Z,19.29
2022-08-28T20:16:31.479Z,19.30
2022-08-28T20:19:03.923Z,19.33
2022-08-28T20:21:38.233Z,19.33
2022-08-28T20:24:12.827Z,19.36
2022-08-28T20:26:44.431Z,19.37
2022-08-28T20:29:16.787Z,19.39
2022-08-28T20:31:51.046Z,19.40
2022-08-28T20:34:23.053Z,19.41
2022-08-28T20:36:55.084Z,19.43
2022-08-28T20:39:26.834Z,19.45
2022-08-28T20:41:58.638Z,19.45
2022-08-28T20:44:30.117Z,19.44
2022-08-28T20:47:02.923Z,19.44
2022-08-28T20:49:34.366Z,19.45
2022-08-28T20:52:10.904Z,19.45
2022-08-28T20:54:43.074Z,19.46
2022-08-28T20:57:17.321Z,19.47
2022-08-28T20:59:54.001Z,19.48
2022-08-28T21:02:27.965Z,19.49
2022-08-28T21:05:02.469Z,19.50
2022-08-28T21:07:35.235Z,19.50
2022-08-28T21:10:09.199Z,19.51
2022-08-28T21:12:41.576Z,19.52
2022-08-28T21:15:16.238Z,19.53
2022-08-28T21:17:48.120Z,19.52
2022-08-28T21:20:21.860Z,19.53
2022-08-28T21:22:54.260Z,19.55
2022-08-28T21:25:26.588Z,19.58
2022-08-28T21:27:58.099Z,19.59
2022-08-28T21:30:35.571Z,19.60
2022-08-28T21:33:07.096Z,19.61
2022-08-28T21:35:40.800Z,19.62
2022-08-28T21:38:13.688Z,19.59
2022-08-28T21:40:45.530Z,19.57
2022-08-28T21:43:17.225Z,19.56
2022-08-28T21:45:59.920Z,19.53
2022-08-28T21:48:33.107Z,19.48
2022-08-28T21:51:07.049Z,19.47
2022-08-28T21:53:40.099Z,19.45
2022-08-28T21:56:11.806Z,19.44
2022-08-28T21:58:43.311Z,19.42
2022-08-28T22:01:17.274Z,19.40
2022-08-28T22:03:49.350Z,19.41
2022-08-28T22:06:24.120Z,19.40
2022-08-28T22:08:58.933Z,19.40
2022-08-28T22:11:31.023Z,19.42
2022-08-28T22:14:02.700Z,19.41
2022-08-28T22:16:34.330Z,19.39
2022-08-28T22:19:06.174Z,19.39
2022-08-28T22:21:54.995Z,19.38
2022-08-28T22:24:26.641Z,19.37
2022-08-28T22:26:58.118Z,19.38
2022-08-28T22:29:36.243Z,19.35
2022-08-28T22:32:08.875Z,19.34
2022-08-28T22:34:43.025Z,19.31
2022-08-28T22:37:14.919Z,19.28
2022-08-28T22:39:47.745Z,19.25
2022-08-28T22:42:23.033Z,19.21
2022-08-28T22:44:56.009Z,19.20
2022-08-28T22:47:28.000Z,19.20
2022-08-28T22:50:04.273Z,19.21
2022-08-28T22:52:37.174Z,19.19
2022-08-28T22:55:13.121Z,19.18
2022-08-28T22:57:44.956Z,19.18
2022-08-28T23:00:23.903Z,19.18
2022-08-28T23:02:57.517Z,19.16
2022-08-28T23:05:31.602Z,19.16
2022-08-28T23:08:03.267Z,19.15
2022-08-28T23:10:57.602Z,19.13
2022-08-28T23:13:26.209Z,19.11
2022-08-28T23:16:00.072Z,19.11
2022-08-28T23:18:51.693Z,19.10
2022-08-28T23:21:28.405Z,19.06
2022-08-28T23:24:00.600Z,19.05
2022-08-28T23:26:33.151Z,19.03
2022-08-28T23:29:05.157Z,19.01
2022-08-28T23:31:37.106Z,19.01
2022-08-28T23:34:10.208Z,19.00
2022-08-28T23:36:45.259Z,18.99
2022-08-28T23:39:17.315Z,19.00
2022-08-28T23:41:49.200Z,18.98
2022-08-28T23:44:23.864Z,18.95
2022-08-28T23:46:55.304Z,18.94
2022-08-28T23:49:27.521Z,18.95
2022-08-28T23:52:01.669Z,18.96
2022-08-28T23:54:35.022Z,18.95
2022-08-28T23:57:06.699Z,18.95
2022-08-28T23:59:38.519Z,18.93
